sensor_id;sensor_type;location;lat;lon;timestamp;P1;durP1;ratioP1;P2;durP2;ratioP2
18286;SDS011;9269;50.838;12.094;2022-07-06T00:02:14;3.37;;;2.30;;
18286;SDS011;9269;50.838;12.094;2022-07-06T00:04:42;3.63;;;2.17;;
18286;SDS011;9269;50.838;12.094;2022-07-06T00:07:11;3.73;;;2.60;;
18286;SDS011;9269;50.838;12.094;2022-07-06T00:09:40;2.50;;;2.30;;
18286;SDS011;9269;50.838;12.094;2022-07-06T00:12:09;2.40;;;2.20;;
18286;SDS011;9269;50.838;12.094;2022-07-06T00:14:37;3.33;;;2.43;;
18286;SDS011;9269;50.838;12.094;2022-07-06T00:17:06;3.03;;;2.50;;
18286;SDS011;9269;50.838;12.094;2022-07-06T00:19:35;4.93;;;2.77;;
18286;SDS011;9269;50.838;12.094;2022-07-06T00:22:04;3.90;;;2.53;;
18286;SDS011;9269;50.838;12.094;2022-07-06T00:24:32;5.33;;;2.70;;
18286;SDS011;9269;50.838;12.094;2022-07-06T00:27:00;3.17;;;2.67;;
18286;SDS011;9269;50.838;12.094;2022-07-06T00:29:29;5.63;;;2.63;;
18286;SDS011;9269;50.838;12.094;2022-07-06T00:31:57;3.07;;;2.77;;
18286;SDS011;9269;50.838;12.094;2022-07-06T00:34:26;3.67;;;2.77;;
18286;SDS011;9269;50.838;12.094;2022-07-06T00:36:55;4.63;;;2.30;;
18286;SDS011;9269;50.838;12.094;2022-07-06T00:39:24;2.77;;;2.53;;
18286;SDS011;9269;50.838;12.094;2022-07-06T00:41:56;4.00;;;2.57;;
18286;SDS011;9269;50.838;12.094;2022-07-06T00:44:25;3.30;;;2.47;;
18286;SDS011;9269;50.838;12.094;2022-07-06T00:46:53;6.53;;;3.33;;
18286;SDS011;9269;50.838;12.094;2022-07-06T00:49:21;5.00;;;3.13;;
18286;SDS011;9269;50.838;12.094;2022-07-06T00:52:09;5.57;;;3.37;;
18286;SDS011;9269;50.838;12.094;2022-07-06T00:54:38;5.00;;;3.63;;
18286;SDS011;9269;50.838;12.094;2022-07-06T00:57:09;4.27;;;2.80;;
18286;SDS011;9269;50.838;12.094;2022-07-06T00:59:37;5.27;;;3.10;;
18286;SDS011;9269;50.838;12.094;2022-07-06T01:02:06;7.83;;;4.33;;
18286;SDS011;9269;50.838;12.094;2022-07-06T01:04:34;6.10;;;4.03;;
18286;SDS011;9269;50.838;12.094;2022-07-06T01:07:03;6.67;;;4.50;;
18286;SDS011;9269;50.838;12.094;2022-07-06T01:09:33;5.30;;;3.80;;
18286;SDS011;9269;50.838;12.094;2022-07-06T01:12:01;7.23;;;4.27;;
18286;SDS011;9269;50.838;12.094;2022-07-06T01:14:30;6.97;;;4.10;;
18286;SDS011;9269;50.838;12.094;2022-07-06T01:16:59;8.50;;;4.83;;
18286;SDS011;9269;50.838;12.094;2022-07-06T01:19:27;10.30;;;4.50;;
18286;SDS011;9269;50.838;12.094;2022-07-06T01:21:57;4.37;;;3.60;;
18286;SDS011;9269;50.838;12.094;2022-07-06T01:24:26;5.03;;;3.27;;
18286;SDS011;9269;50.838;12.094;2022-07-06T01:26:55;6.43;;;4.00;;
18286;SDS011;9269;50.838;12.094;2022-07-06T01:29:23;3.77;;;3.17;;
18286;SDS011;9269;50.838;12.094;2022-07-06T01:31:51;5.00;;;3.27;;
18286;SDS011;9269;50.838;12.094;2022-07-06T01:34:20;4.30;;;3.17;;
18286;SDS011;9269;50.838;12.094;2022-07-06T01:36:48;5.37;;;3.00;;
18286;SDS011;9269;50.838;12.094;2022-07-06T01:39:18;4.30;;;3.17;;
18286;SDS011;9269;50.838;12.094;2022-07-06T01:41:46;6.47;;;3.23;;
18286;SDS011;9269;50.838;12.094;2022-07-06T01:44:15;4.03;;;2.83;;
18286;SDS011;9269;50.838;12.094;2022-07-06T01:46:43;3.00;;;2.70;;
18286;SDS011;9269;50.838;12.094;2022-07-06T01:49:12;2.83;;;2.63;;
18286;SDS011;9269;50.838;12.094;2022-07-06T01:51:40;5.60;;;3.00;;
18286;SDS011;9269;50.838;12.094;2022-07-06T01:54:08;5.50;;;3.07;;
18286;SDS011;9269;50.838;12.094;2022-07-06T01:56:38;4.03;;;3.03;;
18286;SDS011;9269;50.838;12.094;2022-07-06T01:59:07;4.57;;;3.40;;
18286;SDS011;9269;50.838;12.094;2022-07-06T02:01:36;6.47;;;3.50;;
18286;SDS011;9269;50.838;12.094;2022-07-06T02:04:04;5.53;;;3.30;;
18286;SDS011;9269;50.838;12.094;2022-07-06T02:06:32;5.00;;;3.20;;
18286;SDS011;9269;50.838;12.094;2022-07-06T02:09:01;6.73;;;3.33;;
18286;SDS011;9269;50.838;12.094;2022-07-06T02:11:29;4.87;;;2.90;;
18286;SDS011;9269;50.838;12.094;2022-07-06T02:13:59;5.57;;;3.40;;
18286;SDS011;9269;50.838;12.094;2022-07-06T02:16:27;3.77;;;2.70;;
18286;SDS011;9269;50.838;12.094;2022-07-06T02:18:56;3.40;;;3.10;;
18286;SDS011;9269;50.838;12.094;2022-07-06T02:21:24;4.57;;;3.23;;
18286;SDS011;9269;50.838;12.094;2022-07-06T02:23:53;5.63;;;2.90;;
18286;SDS011;9269;50.838;12.094;2022-07-06T02:26:21;4.70;;;2.90;;
18286;SDS011;9269;50.838;12.094;2022-07-06T02:28:49;3.63;;;3.30;;
18286;SDS011;9269;50.838;12.094;2022-07-06T02:31:19;3.53;;;2.70;;
18286;SDS011;9269;50.838;12.094;2022-07-06T02:33:47;4.17;;;2.83;;
18286;SDS011;9269;50.838;12.094;2022-07-06T02:36:16;4.53;;;2.90;;
18286;SDS011;9269;50.838;12.094;2022-07-06T02:38:44;5.37;;;2.77;;
18286;SDS011;9269;50.838;12.094;2022-07-06T02:41:12;3.40;;;2.63;;
18286;SDS011;9269;50.838;12.094;2022-07-06T02:43:40;2.80;;;2.50;;
18286;SDS011;9269;50.838;12.094;2022-07-06T02:46:09;3.17;;;2.70;;
18286;SDS011;9269;50.838;12.094;2022-07-06T02:48:39;3.70;;;2.80;;
18286;SDS011;9269;50.838;12.094;2022-07-06T02:51:07;3.13;;;2.60;;
18286;SDS011;9269;50.838;12.094;2022-07-06T02:53:36;3.97;;;2.90;;
18286;SDS011;9269;50.838;12.094;2022-07-06T02:56:04;3.97;;;2.77;;
18286;SDS011;9269;50.838;12.094;2022-07-06T02:58:32;3.43;;;3.13;;
18286;SDS011;9269;50.838;12.094;2022-07-06T03:01:01;3.47;;;2.60;;
18286;SDS011;9269;50.838;12.094;2022-07-06T03:03:29;4.43;;;3.00;;
18286;SDS011;9269;50.838;12.094;2022-07-06T03:05:59;3.63;;;2.83;;
18286;SDS011;9269;50.838;12.094;2022-07-06T03:08:27;3.30;;;2.90;;
18286;SDS011;9269;50.838;12.094;2022-07-06T03:10:56;3.50;;;2.83;;
18286;SDS011;9269;50.838;12.094;2022-07-06T03:13:24;3.33;;;2.90;;
18286;SDS011;9269;50.838;12.094;2022-07-06T03:15:54;3.13;;;2.83;;
18286;SDS011;9269;50.838;12.094;2022-07-06T03:18:22;4.60;;;2.70;;
18286;SDS011;9269;50.838;12.094;2022-07-06T03:20:51;3.37;;;2.30;;
18286;SDS011;9269;50.838;12.094;2022-07-06T03:23:21;2.40;;;2.20;;
18286;SDS011;9269;50.838;12.094;2022-07-06T03:25:49;2.97;;;2.27;;
18286;SDS011;9269;50.838;12.094;2022-07-06T03:28:18;2.73;;;2.00;;
18286;SDS011;9269;50.838;12.094;2022-07-06T03:30:46;2.40;;;2.20;;
18286;SDS011;9269;50.838;12.094;2022-07-06T03:33:15;2.43;;;2.00;;
18286;SDS011;9269;50.838;12.094;2022-07-06T03:35:43;5.13;;;2.37;;
18286;SDS011;9269;50.838;12.094;2022-07-06T03:38:11;2.70;;;2.37;;
18286;SDS011;9269;50.838;12.094;2022-07-06T03:40:41;3.63;;;2.30;;
18286;SDS011;9269;50.838;12.094;2022-07-06T03:43:09;3.67;;;2.10;;
18286;SDS011;9269;50.838;12.094;2022-07-06T03:45:37;2.23;;;2.00;;
18286;SDS011;9269;50.838;12.094;2022-07-06T03:48:06;2.77;;;2.00;;
18286;SDS011;9269;50.838;12.094;2022-07-06T03:50:34;2.30;;;2.10;;
18286;SDS011;9269;50.838;12.094;2022-07-06T03:53:03;3.77;;;2.37;;
18286;SDS011;9269;50.838;12.094;2022-07-06T03:55:31;4.70;;;2.27;;
18286;SDS011;9269;50.838;12.094;2022-07-06T03:58:01;2.63;;;2.10;;
18286;SDS011;9269;50.838;12.094;2022-07-06T04:00:32;2.80;;;2.50;;
18286;SDS011;9269;50.838;12.094;2022-07-06T04:03:01;3.50;;;2.13;;
18286;SDS011;9269;50.838;12.094;2022-07-06T04:05:29;3.43;;;2.20;;
18286;SDS011;9269;50.838;12.094;2022-07-06T04:07:58;1.97;;;1.87;;
18286;SDS011;9269;50.838;12.094;2022-07-06T04:10:26;2.27;;;2.10;;
18286;SDS011;9269;50.838;12.094;2022-07-06T04:12:54;4.57;;;2.33;;
18286;SDS011;9269;50.838;12.094;2022-07-06T04:15:24;2.97;;;2.30;;
18286;SDS011;9269;50.838;12.094;2022-07-06T04:17:52;2.87;;;1.97;;
18286;SDS011;9269;50.838;12.094;2022-07-06T04:20:21;4.17;;;2.43;;
18286;SDS011;9269;50.838;12.094;2022-07-06T04:22:50;2.63;;;2.37;;
18286;SDS011;9269;50.838;12.094;2022-07-06T04:25:18;5.30;;;2.67;;
18286;SDS011;9269;50.838;12.094;2022-07-06T04:27:47;4.90;;;2.20;;
18286;SDS011;9269;50.838;12.094;2022-07-06T04:30:15;2.30;;;2.10;;
18286;SDS011;9269;50.838;12.094;2022-07-06T04:32:45;2.83;;;2.43;;
18286;SDS011;9269;50.838;12.094;2022-07-06T04:35:13;3.40;;;2.37;;
18286;SDS011;9269;50.838;12.094;2022-07-06T04:37:41;2.93;;;2.30;;
18286;SDS011;9269;50.838;12.094;2022-07-06T04:40:13;4.70;;;2.47;;
18286;SDS011;9269;50.838;12.094;2022-07-06T04:42:44;2.33;;;2.13;;
18286;SDS011;9269;50.838;12.094;2022-07-06T04:45:13;4.80;;;2.47;;
18286;SDS011;9269;50.838;12.094;2022-07-06T04:47:41;2.97;;;2.67;;
18286;SDS011;9269;50.838;12.094;2022-07-06T04:50:12;5.03;;;2.77;;
18286;SDS011;9269;50.838;12.094;2022-07-06T04:52:41;2.60;;;2.40;;
18286;SDS011;9269;50.838;12.094;2022-07-06T04:55:09;3.80;;;2.20;;
18286;SDS011;9269;50.838;12.094;2022-07-06T04:57:38;2.53;;;2.23;;
18286;SDS011;9269;50.838;12.094;2022-07-06T05:00:07;2.93;;;2.67;;
18286;SDS011;9269;50.838;12.094;2022-07-06T05:02:36;3.77;;;2.50;;
18286;SDS011;9269;50.838;12.094;2022-07-06T05:05:16;3.00;;;2.30;;
18286;SDS011;9269;50.838;12.094;2022-07-06T05:07:45;2.33;;;2.17;;
18286;SDS011;9269;50.838;12.094;2022-07-06T05:10:13;2.97;;;2.23;;
18286;SDS011;9269;50.838;12.094;2022-07-06T05:12:42;2.20;;;2.00;;
18286;SDS011;9269;50.838;12.094;2022-07-06T05:15:11;3.50;;;2.30;;
18286;SDS011;9269;50.838;12.094;2022-07-06T05:17:39;2.67;;;2.07;;
18286;SDS011;9269;50.838;12.094;2022-07-06T05:20:08;3.50;;;2.23;;
18286;SDS011;9269;50.838;12.094;2022-07-06T05:22:38;3.80;;;2.20;;
18286;SDS011;9269;50.838;12.094;2022-07-06T05:25:12;2.93;;;2.37;;
18286;SDS011;9269;50.838;12.094;2022-07-06T05:27:40;3.60;;;2.20;;
18286;SDS011;9269;50.838;12.094;2022-07-06T05:30:09;6.53;;;2.23;;
18286;SDS011;9269;50.838;12.094;2022-07-06T05:32:38;4.50;;;2.30;;
18286;SDS011;9269;50.838;12.094;2022-07-06T05:35:07;3.73;;;2.37;;
18286;SDS011;9269;50.838;12.094;2022-07-06T05:37:57;2.23;;;2.03;;
18286;SDS011;9269;50.838;12.094;2022-07-06T05:40:25;3.73;;;2.03;;
18286;SDS011;9269;50.838;12.094;2022-07-06T05:42:53;3.97;;;1.97;;
18286;SDS011;9269;50.838;12.094;2022-07-06T05:45:22;3.40;;;2.30;;
18286;SDS011;9269;50.838;12.094;2022-07-06T05:47:50;5.17;;;2.43;;
18286;SDS011;9269;50.838;12.094;2022-07-06T05:50:37;2.60;;;1.93;;
18286;SDS011;9269;50.838;12.094;2022-07-06T05:53:07;4.67;;;2.13;;
18286;SDS011;9269;50.838;12.094;2022-07-06T05:55:45;3.27;;;1.90;;
18286;SDS011;9269;50.838;12.094;2022-07-06T05:58:14;5.60;;;2.40;;
18286;SDS011;9269;50.838;12.094;2022-07-06T06:00:43;3.77;;;2.27;;
18286;SDS011;9269;50.838;12.094;2022-07-06T06:03:12;3.70;;;2.33;;
18286;SDS011;9269;50.838;12.094;2022-07-06T06:05:40;2.47;;;2.03;;
18286;SDS011;9269;50.838;12.094;2022-07-06T06:08:10;4.63;;;2.20;;
18286;SDS011;9269;50.838;12.094;2022-07-06T06:10:39;4.30;;;2.00;;
18286;SDS011;9269;50.838;12.094;2022-07-06T06:13:07;3.80;;;2.27;;
18286;SDS011;9269;50.838;12.094;2022-07-06T06:15:35;3.13;;;2.00;;
18286;SDS011;9269;50.838;12.094;2022-07-06T06:18:04;2.93;;;2.07;;
18286;SDS011;9269;50.838;12.094;2022-07-06T06:20:33;2.93;;;1.90;;
18286;SDS011;9269;50.838;12.094;2022-07-06T06:23:01;4.20;;;2.17;;
18286;SDS011;9269;50.838;12.094;2022-07-06T06:25:33;2.73;;;2.40;;
18286;SDS011;9269;50.838;12.094;2022-07-06T06:28:03;2.83;;;2.63;;
18286;SDS011;9269;50.838;12.094;2022-07-06T06:30:32;2.97;;;2.10;;
18286;SDS011;9269;50.838;12.094;2022-07-06T06:33:07;2.27;;;2.10;;
18286;SDS011;9269;50.838;12.094;2022-07-06T06:35:37;5.50;;;2.57;;
18286;SDS011;9269;50.838;12.094;2022-07-06T06:38:09;4.33;;;2.30;;
18286;SDS011;9269;50.838;12.094;2022-07-06T06:40:39;5.27;;;3.17;;
18286;SDS011;9269;50.838;12.094;2022-07-06T06:43:07;3.63;;;2.63;;
18286;SDS011;9269;50.838;12.094;2022-07-06T06:45:36;2.70;;;2.50;;
18286;SDS011;9269;50.838;12.094;2022-07-06T06:48:05;3.63;;;2.20;;
18286;SDS011;9269;50.838;12.094;2022-07-06T06:50:42;3.53;;;2.20;;
18286;SDS011;9269;50.838;12.094;2022-07-06T06:53:10;2.60;;;2.10;;
18286;SDS011;9269;50.838;12.094;2022-07-06T06:55:40;4.43;;;2.70;;
18286;SDS011;9269;50.838;12.094;2022-07-06T06:58:08;5.83;;;2.40;;
18286;SDS011;9269;50.838;12.094;2022-07-06T07:00:37;4.07;;;2.70;;
18286;SDS011;9269;50.838;12.094;2022-07-06T07:03:05;3.13;;;2.40;;
18286;SDS011;9269;50.838;12.094;2022-07-06T07:05:33;4.27;;;2.03;;
18286;SDS011;9269;50.838;12.094;2022-07-06T07:08:01;3.93;;;2.00;;
18286;SDS011;9269;50.838;12.094;2022-07-06T07:10:31;2.97;;;2.17;;
18286;SDS011;9269;50.838;12.094;2022-07-06T07:13:01;3.87;;;1.80;;
18286;SDS011;9269;50.838;12.094;2022-07-06T07:15:29;3.23;;;1.70;;
18286;SDS011;9269;50.838;12.094;2022-07-06T07:17:58;3.73;;;1.80;;
18286;SDS011;9269;50.838;12.094;2022-07-06T07:20:26;1.60;;;1.43;;
18286;SDS011;9269;50.838;12.094;2022-07-06T07:22:56;3.07;;;1.70;;
18286;SDS011;9269;50.838;12.094;2022-07-06T07:25:25;3.50;;;1.80;;
18286;SDS011;9269;50.838;12.094;2022-07-06T07:27:53;2.00;;;1.63;;
18286;SDS011;9269;50.838;12.094;2022-07-06T07:30:23;3.53;;;1.77;;
18286;SDS011;9269;50.838;12.094;2022-07-06T07:32:51;3.97;;;2.00;;
18286;SDS011;9269;50.838;12.094;2022-07-06T07:35:21;2.07;;;1.47;;
18286;SDS011;9269;50.838;12.094;2022-07-06T07:37:50;4.97;;;1.80;;
18286;SDS011;9269;50.838;12.094;2022-07-06T07:40:18;3.97;;;1.83;;
18286;SDS011;9269;50.838;12.094;2022-07-06T07:42:48;3.67;;;2.40;;
18286;SDS011;9269;50.838;12.094;2022-07-06T07:45:17;3.77;;;2.00;;
18286;SDS011;9269;50.838;12.094;2022-07-06T07:47:46;2.47;;;1.83;;
18286;SDS011;9269;50.838;12.094;2022-07-06T07:50:15;2.03;;;1.57;;
18286;SDS011;9269;50.838;12.094;2022-07-06T07:52:44;3.30;;;1.73;;
18286;SDS011;9269;50.838;12.094;2022-07-06T07:55:13;3.37;;;1.80;;
18286;SDS011;9269;50.838;12.094;2022-07-06T07:58:01;5.63;;;2.20;;
18286;SDS011;9269;50.838;12.094;2022-07-06T08:00:31;4.87;;;1.77;;
18286;SDS011;9269;50.838;12.094;2022-07-06T08:03:01;5.20;;;2.20;;
18286;SDS011;9269;50.838;12.094;2022-07-06T08:05:30;3.00;;;2.33;;
18286;SDS011;9269;50.838;12.094;2022-07-06T08:07:59;2.10;;;2.00;;
18286;SDS011;9269;50.838;12.094;2022-07-06T08:10:27;2.80;;;1.80;;
18286;SDS011;9269;50.838;12.094;2022-07-06T08:13:12;4.03;;;2.10;;
18286;SDS011;9269;50.838;12.094;2022-07-06T08:15:41;3.93;;;2.10;;
18286;SDS011;9269;50.838;12.094;2022-07-06T08:18:12;3.97;;;2.53;;
18286;SDS011;9269;50.838;12.094;2022-07-06T08:20:40;3.40;;;2.10;;
18286;SDS011;9269;50.838;12.094;2022-07-06T08:23:29;3.63;;;2.70;;
18286;SDS011;9269;50.838;12.094;2022-07-06T08:25:57;2.60;;;1.90;;
18286;SDS011;9269;50.838;12.094;2022-07-06T08:28:25;3.37;;;2.27;;
18286;SDS011;9269;50.838;12.094;2022-07-06T08:30:55;3.60;;;2.40;;
18286;SDS011;9269;50.838;12.094;2022-07-06T08:33:25;3.97;;;2.40;;
18286;SDS011;9269;50.838;12.094;2022-07-06T08:35:54;4.03;;;2.30;;
18286;SDS011;9269;50.838;12.094;2022-07-06T08:38:22;3.47;;;2.40;;
18286;SDS011;9269;50.838;12.094;2022-07-06T08:40:51;3.60;;;2.73;;
18286;SDS011;9269;50.838;12.094;2022-07-06T08:43:20;2.40;;;2.20;;
18286;SDS011;9269;50.838;12.094;2022-07-06T08:45:50;2.70;;;1.97;;
18286;SDS011;9269;50.838;12.094;2022-07-06T08:48:22;3.10;;;2.10;;
18286;SDS011;9269;50.838;12.094;2022-07-06T08:50:53;3.67;;;2.17;;
18286;SDS011;9269;50.838;12.094;2022-07-06T08:53:22;4.07;;;2.27;;
18286;SDS011;9269;50.838;12.094;2022-07-06T08:55:53;3.17;;;2.30;;
18286;SDS011;9269;50.838;12.094;2022-07-06T08:58:23;2.70;;;2.27;;
18286;SDS011;9269;50.838;12.094;2022-07-06T09:00:52;2.57;;;2.00;;
18286;SDS011;9269;50.838;12.094;2022-07-06T09:03:20;2.43;;;2.23;;
18286;SDS011;9269;50.838;12.094;2022-07-06T09:05:50;3.03;;;2.30;;
18286;SDS011;9269;50.838;12.094;2022-07-06T09:08:23;3.77;;;2.20;;
18286;SDS011;9269;50.838;12.094;2022-07-06T09:10:55;3.73;;;2.63;;
18286;SDS011;9269;50.838;12.094;2022-07-06T09:13:23;4.30;;;2.53;;
18286;SDS011;9269;50.838;12.094;2022-07-06T09:15:53;2.00;;;1.90;;
18286;SDS011;9269;50.838;12.094;2022-07-06T09:18:43;2.03;;;1.87;;
18286;SDS011;9269;50.838;12.094;2022-07-06T09:21:16;4.10;;;2.23;;
18286;SDS011;9269;50.838;12.094;2022-07-06T09:23:54;3.30;;;2.30;;
18286;SDS011;9269;50.838;12.094;2022-07-06T09:26:23;2.57;;;2.20;;
18286;SDS011;9269;50.838;12.094;2022-07-06T09:28:52;3.17;;;2.00;;
18286;SDS011;9269;50.838;12.094;2022-07-06T09:31:23;3.80;;;2.43;;
18286;SDS011;9269;50.838;12.094;2022-07-06T09:33:55;3.90;;;2.20;;
18286;SDS011;9269;50.838;12.094;2022-07-06T09:36:36;2.63;;;2.40;;
18286;SDS011;9269;50.838;12.094;2022-07-06T09:39:17;4.83;;;2.20;;
18286;SDS011;9269;50.838;12.094;2022-07-06T09:41:50;4.97;;;1.90;;
18286;SDS011;9269;50.838;12.094;2022-07-06T09:44:20;2.23;;;2.00;;
18286;SDS011;9269;50.838;12.094;2022-07-06T09:46:50;3.23;;;2.10;;
18286;SDS011;9269;50.838;12.094;2022-07-06T09:49:20;2.43;;;2.00;;
18286;SDS011;9269;50.838;12.094;2022-07-06T09:51:50;1.97;;;1.73;;
18286;SDS011;9269;50.838;12.094;2022-07-06T09:54:21;2.53;;;2.10;;
18286;SDS011;9269;50.838;12.094;2022-07-06T09:56:50;2.40;;;2.00;;
18286;SDS011;9269;50.838;12.094;2022-07-06T09:59:20;2.27;;;1.90;;
18286;SDS011;9269;50.838;12.094;2022-07-06T10:01:50;2.20;;;1.70;;
18286;SDS011;9269;50.838;12.094;2022-07-06T10:04:21;2.57;;;1.70;;
18286;SDS011;9269;50.838;12.094;2022-07-06T10:06:51;2.93;;;1.70;;
18286;SDS011;9269;50.838;12.094;2022-07-06T10:09:22;2.17;;;1.80;;
18286;SDS011;9269;50.838;12.094;2022-07-06T10:11:52;2.33;;;1.60;;
18286;SDS011;9269;50.838;12.094;2022-07-06T10:14:22;2.63;;;1.83;;
18286;SDS011;9269;50.838;12.094;2022-07-06T10:16:53;2.57;;;1.80;;
18286;SDS011;9269;50.838;12.094;2022-07-06T10:19:23;3.37;;;1.93;;
18286;SDS011;9269;50.838;12.094;2022-07-06T10:21:52;2.27;;;1.90;;
18286;SDS011;9269;50.838;12.094;2022-07-06T10:24:22;2.00;;;1.80;;
18286;SDS011;9269;50.838;12.094;2022-07-06T10:26:51;3.53;;;1.90;;
18286;SDS011;9269;50.838;12.094;2022-07-06T10:29:20;3.97;;;2.27;;
18286;SDS011;9269;50.838;12.094;2022-07-06T10:31:49;4.00;;;2.10;;
18286;SDS011;9269;50.838;12.094;2022-07-06T10:34:19;3.87;;;2.03;;
18286;SDS011;9269;50.838;12.094;2022-07-06T10:36:48;3.17;;;1.80;;
18286;SDS011;9269;50.838;12.094;2022-07-06T10:39:32;3.80;;;1.97;;
18286;SDS011;9269;50.838;12.094;2022-07-06T10:45:07;2.27;;;1.80;;
18286;SDS011;9269;50.838;12.094;2022-07-06T10:47:38;1.90;;;1.70;;
18286;SDS011;9269;50.838;12.094;2022-07-06T10:50:08;2.90;;;1.90;;
18286;SDS011;9269;50.838;12.094;2022-07-06T10:52:49;3.80;;;2.00;;
18286;SDS011;9269;50.838;12.094;2022-07-06T10:55:29;3.47;;;1.70;;
18286;SDS011;9269;50.838;12.094;2022-07-06T10:57:59;2.23;;;1.80;;
18286;SDS011;9269;50.838;12.094;2022-07-06T11:00:42;2.03;;;1.60;;
18286;SDS011;9269;50.838;12.094;2022-07-06T11:03:29;2.47;;;1.80;;
18286;SDS011;9269;50.838;12.094;2022-07-06T11:05:58;2.40;;;1.90;;
18286;SDS011;9269;50.838;12.094;2022-07-06T11:08:47;3.73;;;2.00;;
18286;SDS011;9269;50.838;12.094;2022-07-06T11:11:37;3.00;;;1.90;;
18286;SDS011;9269;50.838;12.094;2022-07-06T11:14:08;2.30;;;2.10;;
18286;SDS011;9269;50.838;12.094;2022-07-06T11:16:38;2.27;;;1.60;;
18286;SDS011;9269;50.838;12.094;2022-07-06T11:19:08;3.27;;;1.90;;
18286;SDS011;9269;50.838;12.094;2022-07-06T11:21:39;2.53;;;1.87;;
18286;SDS011;9269;50.838;12.094;2022-07-06T11:24:10;2.00;;;1.80;;
18286;SDS011;9269;50.838;12.094;2022-07-06T11:26:41;2.20;;;2.00;;
18286;SDS011;9269;50.838;12.094;2022-07-06T11:29:13;3.80;;;2.30;;
18286;SDS011;9269;50.838;12.094;2022-07-06T11:31:45;2.63;;;1.70;;
18286;SDS011;9269;50.838;12.094;2022-07-06T11:34:17;2.40;;;2.20;;
18286;SDS011;9269;50.838;12.094;2022-07-06T11:36:46;2.00;;;1.70;;
18286;SDS011;9269;50.838;12.094;2022-07-06T11:39:15;2.90;;;1.97;;
18286;SDS011;9269;50.838;12.094;2022-07-06T11:41:45;3.73;;;2.30;;
18286;SDS011;9269;50.838;12.094;2022-07-06T11:44:17;2.73;;;2.00;;
18286;SDS011;9269;50.838;12.094;2022-07-06T11:46:46;2.30;;;2.10;;
18286;SDS011;9269;50.838;12.094;2022-07-06T11:49:14;3.13;;;2.07;;
18286;SDS011;9269;50.838;12.094;2022-07-06T11:51:44;2.87;;;1.93;;
18286;SDS011;9269;50.838;12.094;2022-07-06T11:54:14;1.87;;;1.70;;
18286;SDS011;9269;50.838;12.094;2022-07-06T11:56:47;2.87;;;1.90;;
18286;SDS011;9269;50.838;12.094;2022-07-06T11:59:22;2.27;;;1.83;;
18286;SDS011;9269;50.838;12.094;2022-07-06T12:01:57;3.17;;;2.00;;
18286;SDS011;9269;50.838;12.094;2022-07-06T12:04:27;2.60;;;1.83;;
18286;SDS011;9269;50.838;12.094;2022-07-06T12:06:59;3.50;;;1.80;;
18286;SDS011;9269;50.838;12.094;2022-07-06T12:09:29;2.23;;;1.70;;
18286;SDS011;9269;50.838;12.094;2022-07-06T12:12:00;2.13;;;1.90;;
18286;SDS011;9269;50.838;12.094;2022-07-06T12:14:30;1.63;;;1.53;;
18286;SDS011;9269;50.838;12.094;2022-07-06T12:17:02;1.73;;;1.63;;
18286;SDS011;9269;50.838;12.094;2022-07-06T12:19:32;1.93;;;1.73;;
18286;SDS011;9269;50.838;12.094;2022-07-06T12:22:00;2.67;;;1.40;;
18286;SDS011;9269;50.838;12.094;2022-07-06T12:24:30;1.93;;;1.60;;
18286;SDS011;9269;50.838;12.094;2022-07-06T12:27:10;1.50;;;1.40;;
18286;SDS011;9269;50.838;12.094;2022-07-06T12:29:40;1.43;;;1.20;;
18286;SDS011;9269;50.838;12.094;2022-07-06T12:32:13;3.07;;;1.50;;
18286;SDS011;9269;50.838;12.094;2022-07-06T12:34:43;1.80;;;1.50;;
18286;SDS011;9269;50.838;12.094;2022-07-06T12:37:11;1.70;;;1.60;;
18286;SDS011;9269;50.838;12.094;2022-07-06T12:39:41;3.93;;;1.63;;
18286;SDS011;9269;50.838;12.094;2022-07-06T12:42:13;2.00;;;1.20;;
18286;SDS011;9269;50.838;12.094;2022-07-06T12:44:46;1.73;;;1.60;;
18286;SDS011;9269;50.838;12.094;2022-07-06T12:47:16;1.40;;;1.30;;
18286;SDS011;9269;50.838;12.094;2022-07-06T12:49:46;1.13;;;1.00;;
18286;SDS011;9269;50.838;12.094;2022-07-06T12:52:15;3.50;;;1.43;;
18286;SDS011;9269;50.838;12.094;2022-07-06T12:54:45;2.13;;;1.40;;
18286;SDS011;9269;50.838;12.094;2022-07-06T12:57:16;2.23;;;1.17;;
18286;SDS011;9269;50.838;12.094;2022-07-06T12:59:47;1.77;;;1.30;;
18286;SDS011;9269;50.838;12.094;2022-07-06T13:02:23;1.13;;;1.00;;
18286;SDS011;9269;50.838;12.094;2022-07-06T13:05:13;2.37;;;1.40;;
18286;SDS011;9269;50.838;12.094;2022-07-06T13:07:46;1.53;;;1.00;;
18286;SDS011;9269;50.838;12.094;2022-07-06T13:10:16;2.87;;;1.40;;
18286;SDS011;9269;50.838;12.094;2022-07-06T13:12:46;1.37;;;1.20;;
18286;SDS011;9269;50.838;12.094;2022-07-06T13:15:14;2.60;;;1.07;;
18286;SDS011;9269;50.838;12.094;2022-07-06T13:17:43;1.60;;;1.20;;
18286;SDS011;9269;50.838;12.094;2022-07-06T13:20:13;2.50;;;1.10;;
18286;SDS011;9269;50.838;12.094;2022-07-06T13:22:43;2.13;;;1.30;;
18286;SDS011;9269;50.838;12.094;2022-07-06T13:25:12;2.10;;;1.33;;
18286;SDS011;9269;50.838;12.094;2022-07-06T13:27:41;1.47;;;1.03;;
18286;SDS011;9269;50.838;12.094;2022-07-06T13:30:12;1.97;;;1.37;;
18286;SDS011;9269;50.838;12.094;2022-07-06T13:32:41;2.53;;;1.10;;
18286;SDS011;9269;50.838;12.094;2022-07-06T13:35:09;2.13;;;1.50;;
18286;SDS011;9269;50.838;12.094;2022-07-06T13:37:38;1.50;;;1.40;;
18286;SDS011;9269;50.838;12.094;2022-07-06T13:40:07;1.10;;;1.00;;
18286;SDS011;9269;50.838;12.094;2022-07-06T13:42:36;3.13;;;1.27;;
18286;SDS011;9269;50.838;12.094;2022-07-06T13:45:05;2.90;;;1.30;;
18286;SDS011;9269;50.838;12.094;2022-07-06T13:47:35;1.90;;;1.37;;
18286;SDS011;9269;50.838;12.094;2022-07-06T13:50:04;1.40;;;1.23;;
18286;SDS011;9269;50.838;12.094;2022-07-06T13:52:33;3.33;;;1.40;;
18286;SDS011;9269;50.838;12.094;2022-07-06T13:55:01;2.50;;;1.30;;
18286;SDS011;9269;50.838;12.094;2022-07-06T13:57:30;3.93;;;1.40;;
18286;SDS011;9269;50.838;12.094;2022-07-06T13:59:58;1.97;;;1.23;;
18286;SDS011;9269;50.838;12.094;2022-07-06T14:02:27;2.60;;;1.40;;
18286;SDS011;9269;50.838;12.094;2022-07-06T14:04:57;1.70;;;1.30;;
18286;SDS011;9269;50.838;12.094;2022-07-06T14:07:25;1.43;;;1.20;;
18286;SDS011;9269;50.838;12.094;2022-07-06T14:09:54;1.50;;;1.23;;
18286;SDS011;9269;50.838;12.094;2022-07-06T14:12:22;3.00;;;1.40;;
18286;SDS011;9269;50.838;12.094;2022-07-06T14:14:51;2.80;;;1.37;;
18286;SDS011;9269;50.838;12.094;2022-07-06T14:17:20;1.37;;;1.27;;
18286;SDS011;9269;50.838;12.094;2022-07-06T14:19:48;1.77;;;1.30;;
18286;SDS011;9269;50.838;12.094;2022-07-06T14:22:18;3.07;;;1.40;;
18286;SDS011;9269;50.838;12.094;2022-07-06T14:24:46;1.93;;;1.40;;
18286;SDS011;9269;50.838;12.094;2022-07-06T14:27:15;2.10;;;1.33;;
18286;SDS011;9269;50.838;12.094;2022-07-06T14:29:44;2.30;;;1.20;;
18286;SDS011;9269;50.838;12.094;2022-07-06T14:32:13;2.10;;;1.60;;
18286;SDS011;9269;50.838;12.094;2022-07-06T14:34:42;2.40;;;1.07;;
18286;SDS011;9269;50.838;12.094;2022-07-06T14:37:11;3.27;;;1.17;;
18286;SDS011;9269;50.838;12.094;2022-07-06T14:39:47;2.83;;;1.30;;
18286;SDS011;9269;50.838;12.094;2022-07-06T14:42:15;2.10;;;1.20;;
18286;SDS011;9269;50.838;12.094;2022-07-06T14:44:44;2.63;;;1.23;;
18286;SDS011;9269;50.838;12.094;2022-07-06T14:47:12;2.53;;;1.20;;
18286;SDS011;9269;50.838;12.094;2022-07-06T14:49:41;1.70;;;1.20;;
18286;SDS011;9269;50.838;12.094;2022-07-06T14:52:09;2.57;;;1.67;;
18286;SDS011;9269;50.838;12.094;2022-07-06T14:54:37;2.10;;;1.60;;
18286;SDS011;9269;50.838;12.094;2022-07-06T14:57:07;1.60;;;1.50;;
18286;SDS011;9269;50.838;12.094;2022-07-06T14:59:36;1.97;;;1.30;;
18286;SDS011;9269;50.838;12.094;2022-07-06T15:02:04;2.80;;;1.60;;
18286;SDS011;9269;50.838;12.094;2022-07-06T15:04:32;2.10;;;1.20;;
18286;SDS011;9269;50.838;12.094;2022-07-06T15:07:01;1.77;;;1.23;;
18286;SDS011;9269;50.838;12.094;2022-07-06T15:09:30;1.80;;;1.20;;